createdAt,value
2023-01-07T00:01:35.051Z,100.00
2023-01-07T00:04:04.093Z,100.00
2023-01-07T00:06:34.452Z,100.00
2023-01-07T00:09:02.506Z,100.00
2023-01-07T00:11:34.025Z,100.00
2023-01-07T00:14:01.960Z,100.00
2023-01-07T00:16:31.939Z,100.00
2023-01-07T00:19:01.503Z,100.00
2023-01-07T00:21:29.527Z,100.00
2023-01-07T00:23:59.608Z,100.00
2023-01-07T00:26:30.576Z,100.00
2023-01-07T00:28:58.298Z,100.00
2023-01-07T00:31:34.365Z,100.00
2023-01-07T00:34:02.070Z,100.00
2023-01-07T00:36:31.809Z,100.00
2023-01-07T00:39:01.294Z,100.00
2023-01-07T00:41:29.025Z,100.00
2023-01-07T00:43:56.523Z,100.00
2023-01-07T00:46:24.222Z,100.00
2023-01-07T00:48:51.411Z,100.00
2023-01-07T00:51:19.336Z,100.00
2023-01-07T00:53:46.868Z,100.00
2023-01-07T00:56:15.210Z,100.00
2023-01-07T00:58:42.379Z,100.00
2023-01-07T01:01:11.050Z,100.00
2023-01-07T01:03:39.062Z,100.00
2023-01-07T01:06:09.482Z,100.00
2023-01-07T01:08:36.605Z,100.00
2023-01-07T01:11:05.817Z,99.94
2023-01-07T01:13:34.464Z,100.00
2023-01-07T01:16:02.295Z,100.00
2023-01-07T01:18:29.464Z,100.00
2023-01-07T01:20:56.526Z,100.00
2023-01-07T01:23:23.659Z,100.00
2023-01-07T01:25:50.794Z,100.00
2023-01-07T01:28:18.165Z,100.00
2023-01-07T01:30:45.950Z,100.00
2023-01-07T01:33:13.317Z,100.00
2023-01-07T01:35:41.247Z,100.00
2023-01-07T01:38:09.032Z,100.00
2023-01-07T01:40:36.316Z,100.00
2023-01-07T01:43:05.255Z,100.00
2023-01-07T01:45:32.511Z,100.00
2023-01-07T01:48:05.040Z,100.00
2023-01-07T01:50:38.401Z,100.00
2023-01-07T01:53:27.772Z,100.00
2023-01-07T01:56:14.303Z,100.00
2023-01-07T01:58:47.169Z,100.00
2023-01-07T02:01:14.944Z,100.00
2023-01-07T02:03:44.051Z,100.00
2023-01-07T02:06:27.397Z,100.00
2023-01-07T02:08:55.554Z,100.00
2023-01-07T02:11:28.991Z,100.00
2023-01-07T02:14:40.625Z,100.00
2023-01-07T02:17:15.260Z,100.00
2023-01-07T02:20:10.676Z,100.00
2023-01-07T02:23:07.425Z,100.00
2023-01-07T02:26:05.106Z,100.00
2023-01-07T02:28:52.080Z,100.00
2023-01-07T02:31:35.747Z,100.00
2023-01-07T02:34:42.435Z,100.00
2023-01-07T02:37:19.547Z,100.00
2023-01-07T02:40:06.676Z,100.00
2023-01-07T02:42:54.483Z,100.00
2023-01-07T02:45:32.237Z,100.00
2023-01-07T02:48:05.228Z,100.00
2023-01-07T02:50:32.528Z,100.00
2023-01-07T02:52:59.695Z,100.00
2023-01-07T02:55:40.077Z,100.00
2023-01-07T02:58:22.428Z,100.00
2023-01-07T03:01:02.431Z,100.00
2023-01-07T03:04:08.292Z,100.00
2023-01-07T03:06:50.599Z,100.00
2023-01-07T03:09:20.528Z,100.00
2023-01-07T03:12:15.523Z,100.00
2023-01-07T03:14:49.624Z,100.00
2023-01-07T03:17:25.453Z,100.00
2023-01-07T03:19:56.735Z,100.00
2023-01-07T03:22:26.815Z,100.00
2023-01-07T03:24:57.548Z,100.00
2023-01-07T03:27:27.563Z,100.00
2023-01-07T03:29:56.111Z,100.00
2023-01-07T03:32:29.286Z,100.00
2023-01-07T03:34:57.462Z,100.00
2023-01-07T03:37:27.022Z,100.00
2023-01-07T03:39:54.729Z,100.00
2023-01-07T03:42:42.705Z,100.00
2023-01-07T03:45:19.246Z,100.00
2023-01-07T03:47:48.691Z,100.00
2023-01-07T03:50:17.007Z,100.00
2023-01-07T03:52:46.061Z,100.00
2023-01-07T03:55:14.043Z,100.00
2023-01-07T03:57:41.559Z,100.00
2023-01-07T04:00:11.898Z,100.00
2023-01-07T04:02:44.535Z,100.00
2023-01-07T04:05:21.346Z,100.00
2023-01-07T04:07:48.931Z,100.00
2023-01-07T04:10:16.839Z,100.00
2023-01-07T04:12:44.087Z,100.00
2023-01-07T04:15:11.513Z,100.00
2023-01-07T04:17:39.070Z,100.00
2023-01-07T04:20:07.875Z,100.00
2023-01-07T04:22:36.080Z,100.00
2023-01-07T04:25:03.563Z,100.00
2023-01-07T04:27:31.891Z,100.00
2023-01-07T04:29:59.250Z,100.00
2023-01-07T04:32:26.836Z,100.00
2023-01-07T04:34:53.957Z,100.00
2023-01-07T04:37:21.859Z,100.00
2023-01-07T04:39:50.537Z,100.00
2023-01-07T04:42:18.239Z,100.00
2023-01-07T04:44:45.557Z,100.00
2023-01-07T04:47:13.191Z,100.00
2023-01-07T04:49:40.289Z,100.00
2023-01-07T04:52:08.919Z,100.00
2023-01-07T04:54:37.262Z,100.00
2023-01-07T04:57:04.631Z,100.00
2023-01-07T04:59:32.749Z,100.00
2023-01-07T05:02:02.198Z,100.00
2023-01-07T05:04:29.564Z,100.00
2023-01-07T05:06:57.884Z,100.00
2023-01-07T05:09:28.256Z,100.00
2023-01-07T05:11:56.101Z,100.00
2023-01-07T05:14:23.301Z,100.00
2023-01-07T05:16:53.696Z,100.00
2023-01-07T05:19:21.831Z,100.00
2023-01-07T05:21:49.597Z,100.00
2023-01-07T05:24:17.604Z,100.00
2023-01-07T05:26:45.687Z,100.00
2023-01-07T05:29:13.837Z,100.00
2023-01-07T05:31:44.075Z,100.00
2023-01-07T05:34:11.253Z,100.00
2023-01-07T05:36:38.553Z,100.00
2023-01-07T05:39:06.702Z,100.00
2023-01-07T05:41:34.296Z,100.00
2023-01-07T05:44:02.163Z,100.00
2023-01-07T05:46:29.272Z,100.00
2023-01-07T05:48:56.371Z,100.00
2023-01-07T05:51:23.456Z,100.00
2023-01-07T05:53:50.559Z,100.00
2023-01-07T05:56:17.636Z,100.00
2023-01-07T05:58:45.350Z,100.00
2023-01-07T06:01:12.860Z,100.00
2023-01-07T06:03:40.131Z,100.00
2023-01-07T06:06:07.483Z,100.00
2023-01-07T06:08:36.526Z,100.00
2023-01-07T06:11:05.002Z,100.00
2023-01-07T06:13:32.820Z,100.00
2023-01-07T06:16:05.832Z,100.00
2023-01-07T06:18:33.152Z,100.00
2023-01-07T06:21:00.456Z,100.00
2023-01-07T06:23:27.884Z,100.00
2023-01-07T06:25:54.997Z,100.00
2023-01-07T06:28:22.076Z,100.00
2023-01-07T06:30:49.216Z,100.00
2023-01-07T06:33:17.189Z,100.00
2023-01-07T06:35:45.376Z,100.00
2023-01-07T06:38:12.888Z,100.00
2023-01-07T06:40:40.093Z,99.60
2023-01-07T06:43:07.206Z,98.89
2023-01-07T06:45:34.365Z,98.23
2023-01-07T06:48:01.734Z,98.15
2023-01-07T06:50:28.841Z,97.94
2023-01-07T06:52:56.893Z,96.67
2023-01-07T06:55:24.091Z,96.67
2023-01-07T06:57:51.208Z,96.80
2023-01-07T07:00:18.493Z,96.80
2023-01-07T07:02:45.661Z,96.80
2023-01-07T07:05:12.892Z,97.55
2023-01-07T07:07:40.020Z,97.67
2023-01-07T07:10:08.612Z,97.75
2023-01-07T07:12:37.747Z,96.53
2023-01-07T07:15:07.556Z,95.28
2023-01-07T07:17:35.220Z,94.75
2023-01-07T07:20:02.453Z,94.08
2023-01-07T07:22:29.785Z,94.46
2023-01-07T07:24:56.960Z,94.12
2023-01-07T07:27:24.053Z,93.88
2023-01-07T07:29:51.186Z,93.73
2023-01-07T07:32:18.351Z,93.03
2023-01-07T07:34:45.440Z,93.75
2023-01-07T07:37:12.563Z,94.32
2023-01-07T07:39:39.626Z,94.80
2023-01-07T07:42:06.700Z,95.55
2023-01-07T07:44:33.858Z,94.82
2023-01-07T07:47:00.922Z,93.67
2023-01-07T07:49:28.075Z,93.60
2023-01-07T07:51:55.351Z,94.15
2023-01-07T07:54:23.890Z,93.23
2023-01-07T07:56:51.183Z,92.89
2023-01-07T07:59:18.281Z,93.45
2023-01-07T08:01:45.448Z,92.97
2023-01-07T08:04:12.563Z,91.92
2023-01-07T08:06:39.629Z,92.16
2023-01-07T08:09:06.832Z,92.51
2023-01-07T08:11:34.031Z,91.60
2023-01-07T08:14:01.170Z,91.97
2023-01-07T08:16:28.404Z,91.94
2023-01-07T08:18:55.503Z,90.92
2023-01-07T08:21:22.588Z,91.17
2023-01-07T08:23:49.660Z,91.79
2023-01-07T08:26:16.789Z,91.70
2023-01-07T08:28:46.471Z,91.72
2023-01-07T08:31:13.956Z,91.45
2023-01-07T08:33:41.191Z,90.90
2023-01-07T08:36:21.743Z,90.66
2023-01-07T08:38:51.723Z,91.38
2023-01-07T08:41:20.215Z,91.35
2023-01-07T08:43:47.427Z,90.41
2023-01-07T08:46:14.655Z,88.78
2023-01-07T08:48:41.994Z,89.12
2023-01-07T08:51:09.112Z,89.54
2023-01-07T08:53:36.245Z,89.31
2023-01-07T08:56:03.467Z,90.14
2023-01-07T08:58:30.625Z,88.38
2023-01-07T09:01:06.398Z,88.74
2023-01-07T09:03:34.752Z,87.83
2023-01-07T09:06:02.217Z,88.08
2023-01-07T09:08:29.339Z,87.27
2023-01-07T09:10:56.567Z,86.90
2023-01-07T09:13:23.706Z,86.97
2023-01-07T09:15:50.889Z,87.47
2023-01-07T09:18:18.017Z,87.48
2023-01-07T09:20:45.171Z,86.49
2023-01-07T09:23:12.371Z,86.56
2023-01-07T09:25:39.469Z,87.54
2023-01-07T09:28:06.528Z,85.59
2023-01-07T09:30:34.184Z,86.39
2023-01-07T09:33:01.291Z,86.06
2023-01-07T09:35:29.180Z,85.69
2023-01-07T09:37:57.692Z,85.63
2023-01-07T09:40:29.857Z,84.62
2023-01-07T09:43:22.976Z,84.35
2023-01-07T09:45:53.817Z,83.93
2023-01-07T09:48:26.889Z,83.26
2023-01-07T09:51:12.358Z,83.40
2023-01-07T09:53:43.862Z,82.56
2023-01-07T09:56:21.147Z,82.13
2023-01-07T09:58:48.690Z,82.92
2023-01-07T10:01:24.778Z,82.86
2023-01-07T10:04:09.153Z,83.17
2023-01-07T10:07:05.598Z,82.50
2023-01-07T10:10:11.016Z,82.84
2023-01-07T10:12:50.179Z,82.43
2023-01-07T10:15:58.915Z,81.70
2023-01-07T10:18:38.055Z,82.72
2023-01-07T10:21:33.631Z,81.65
2023-01-07T10:24:10.623Z,81.32
2023-01-07T10:26:42.876Z,80.62
2023-01-07T10:29:17.052Z,80.53
2023-01-07T10:31:45.539Z,80.32
2023-01-07T10:34:16.456Z,80.16
2023-01-07T10:36:58.514Z,81.36
2023-01-07T10:39:53.427Z,80.77
2023-01-07T10:42:20.472Z,80.39
2023-01-07T10:45:16.617Z,79.42
2023-01-07T10:47:49.418Z,79.62
2023-01-07T10:50:19.286Z,80.39
2023-01-07T10:52:52.488Z,80.88
2023-01-07T10:56:05.549Z,80.31
2023-01-07T10:58:44.799Z,80.33
2023-01-07T11:01:22.725Z,80.74
2023-01-07T11:03:55.089Z,80.09
2023-01-07T11:06:29.669Z,81.26
2023-01-07T11:08:56.818Z,79.90
2023-01-07T11:11:24.712Z,78.87
2023-01-07T11:13:59.983Z,80.13
2023-01-07T11:16:31.813Z,80.12
2023-01-07T11:19:06.284Z,79.93
2023-01-07T11:21:44.676Z,79.37
2023-01-07T11:24:33.721Z,79.68
2023-01-07T11:27:12.895Z,79.57
2023-01-07T11:29:58.457Z,80.15
2023-01-07T11:32:29.038Z,78.22
2023-01-07T11:35:02.276Z,77.83
2023-01-07T11:37:32.086Z,77.83
2023-01-07T11:40:01.271Z,78.08
2023-01-07T11:42:38.685Z,78.57
2023-01-07T11:45:11.624Z,76.97
2023-01-07T11:47:44.405Z,77.14
2023-01-07T11:50:30.390Z,78.24
2023-01-07T11:53:00.186Z,78.10
2023-01-07T11:55:28.827Z,78.29
2023-01-07T11:58:27.726Z,78.03
2023-01-07T12:00:44.002Z,77.16
2023-01-07T12:03:13.569Z,76.23
2023-01-07T12:05:45.044Z,78.82
2023-01-07T12:08:22.894Z,78.15
2023-01-07T12:11:07.085Z,78.93
2023-01-07T12:13:35.705Z,79.48
2023-01-07T12:16:05.996Z,79.09
2023-01-07T12:19:02.761Z,79.44
2023-01-07T12:22:14.222Z,80.61
2023-01-07T12:25:11.138Z,77.93
2023-01-07T12:27:46.992Z,77.66
2023-01-07T12:30:43.989Z,77.77
2023-01-07T12:33:26.921Z,78.25
2023-01-07T12:35:58.181Z,78.06
2023-01-07T12:38:34.810Z,78.07
2023-01-07T12:41:37.304Z,78.52
2023-01-07T12:44:16.413Z,79.71
2023-01-07T12:47:32.379Z,79.24
2023-01-07T12:50:18.213Z,79.18
2023-01-07T12:53:27.716Z,78.48
2023-01-07T12:56:00.199Z,78.08
2023-01-07T12:58:51.405Z,78.07
2023-01-07T13:01:27.726Z,77.45
2023-01-07T13:04:13.419Z,78.36
2023-01-07T13:06:53.720Z,78.93
2023-01-07T13:09:29.859Z,78.81
2023-01-07T13:12:40.629Z,78.61
2023-01-07T13:15:23.422Z,78.74
2023-01-07T13:17:53.540Z,80.25
2023-01-07T13:20:51.431Z,79.86
2023-01-07T13:23:25.444Z,81.09
2023-01-07T13:25:55.353Z,81.07
2023-01-07T13:28:41.210Z,82.49
2023-01-07T13:31:35.696Z,81.21
2023-01-07T13:34:11.081Z,81.88
2023-01-07T13:36:46.423Z,82.39
2023-01-07T13:39:55.896Z,82.93
2023-01-07T13:42:37.339Z,84.73
2023-01-07T13:45:21.783Z,83.12
2023-01-07T13:48:00.669Z,84.28
2023-01-07T13:50:41.475Z,85.12
2023-01-07T13:53:14.453Z,85.01
2023-01-07T13:55:46.697Z,84.25
2023-01-07T13:58:29.120Z,84.24
2023-01-07T14:01:11.240Z,83.88
2023-01-07T14:03:44.219Z,83.46
2023-01-07T14:06:20.467Z,83.54
2023-01-07T14:09:06.262Z,84.21
2023-01-07T14:11:33.373Z,83.95
2023-01-07T14:14:00.413Z,83.67
2023-01-07T14:16:42.678Z,83.53
2023-01-07T14:19:25.656Z,81.61
2023-01-07T14:21:55.430Z,83.27
2023-01-07T14:24:38.448Z,83.74
2023-01-07T14:27:27.231Z,83.85
2023-01-07T14:30:02.830Z,82.70
2023-01-07T14:32:38.288Z,83.72
2023-01-07T14:35:07.775Z,85.39
2023-01-07T14:37:40.350Z,86.39
2023-01-07T14:40:26.066Z,85.93
2023-01-07T14:42:53.819Z,86.59
2023-01-07T14:45:39.048Z,86.76
2023-01-07T14:48:08.883Z,86.61
2023-01-07T14:51:13.419Z,86.97
2023-01-07T14:53:43.387Z,87.26
2023-01-07T14:56:13.240Z,87.19
2023-01-07T14:59:10.875Z,85.46
2023-01-07T15:01:44.021Z,85.20
2023-01-07T15:04:53.190Z,85.47
2023-01-07T15:07:24.662Z,85.46
2023-01-07T15:10:16.682Z,85.71
2023-01-07T15:12:54.934Z,86.29
2023-01-07T15:15:45.302Z,86.38
2023-01-07T15:18:13.430Z,85.97
2023-01-07T15:21:01.963Z,87.30
2023-01-07T15:23:46.094Z,88.26
2023-01-07T15:26:52.074Z,89.64
2023-01-07T15:29:30.181Z,89.86
2023-01-07T15:32:06.549Z,90.45
2023-01-07T15:34:33.679Z,90.71
2023-01-07T15:37:05.314Z,90.90
2023-01-07T15:39:40.254Z,91.06
2023-01-07T15:42:15.332Z,90.18
2023-01-07T15:44:43.147Z,90.21
2023-01-07T15:47:34.309Z,90.28
2023-01-07T15:50:24.725Z,90.66
2023-01-07T15:53:05.686Z,90.78
2023-01-07T15:55:38.562Z,91.62
2023-01-07T15:58:16.104Z,92.01
2023-01-07T16:00:43.472Z,92.17
2023-01-07T16:03:16.761Z,92.70
2023-01-07T16:05:44.067Z,93.21
2023-01-07T16:08:33.379Z,93.14
2023-01-07T16:11:03.107Z,93.10
2023-01-07T16:13:32.003Z,93.84
2023-01-07T16:16:03.403Z,93.73
2023-01-07T16:18:34.307Z,93.83
2023-01-07T16:21:09.337Z,93.97
2023-01-07T16:23:38.117Z,93.59
2023-01-07T16:26:13.218Z,93.34
2023-01-07T16:28:44.856Z,93.51
2023-01-07T16:31:15.220Z,93.79
2023-01-07T16:33:43.478Z,93.96
2023-01-07T16:36:20.885Z,93.32
2023-01-07T16:38:52.010Z,93.81
2023-01-07T16:41:20.913Z,94.02
2023-01-07T16:43:48.668Z,93.70
2023-01-07T16:46:24.923Z,93.49
2023-01-07T16:49:20.366Z,93.88
2023-01-07T16:51:50.452Z,94.36
2023-01-07T16:54:19.514Z,94.11
2023-01-07T16:56:51.920Z,93.95
2023-01-07T16:59:21.057Z,93.86
2023-01-07T17:01:48.700Z,93.61
2023-01-07T17:04:28.004Z,94.50
2023-01-07T17:06:55.873Z,95.05
2023-01-07T17:09:25.040Z,94.96
2023-01-07T17:11:53.638Z,94.80
2023-01-07T17:14:36.580Z,94.76
2023-01-07T17:17:06.564Z,95.29
2023-01-07T17:19:39.456Z,94.96
2023-01-07T17:22:31.123Z,94.84
2023-01-07T17:25:09.490Z,95.33
2023-01-07T17:27:44.989Z,95.27
2023-01-07T17:30:17.629Z,95.11
2023-01-07T17:32:46.736Z,95.70
2023-01-07T17:35:20.056Z,95.82
2023-01-07T17:37:47.570Z,96.44
2023-01-07T17:40:15.374Z,97.18
2023-01-07T17:43:01.793Z,96.96
2023-01-07T17:45:29.275Z,96.82
2023-01-07T17:47:58.673Z,96.35
2023-01-07T17:50:34.451Z,96.85
2023-01-07T17:53:01.960Z,96.83
2023-01-07T17:55:31.519Z,96.76
2023-01-07T17:57:58.614Z,96.79
2023-01-07T18:00:28.431Z,97.23
2023-01-07T18:02:57.262Z,96.73
2023-01-07T18:05:26.100Z,96.78
2023-01-07T18:07:53.350Z,96.71
2023-01-07T18:10:25.066Z,96.77
2023-01-07T18:12:52.177Z,96.57
2023-01-07T18:15:24.728Z,96.55
2023-01-07T18:17:52.395Z,96.74
2023-01-07T18:20:22.213Z,96.75
2023-01-07T18:22:49.602Z,96.92
2023-01-07T18:25:19.705Z,97.09
2023-01-07T18:27:47.647Z,96.92
2023-01-07T18:30:18.808Z,97.14
2023-01-07T18:32:46.206Z,97.55
2023-01-07T18:35:14.363Z,97.74
2023-01-07T18:37:41.642Z,97.00
2023-01-07T18:40:09.466Z,97.31
2023-01-07T18:42:36.948Z,97.72
2023-01-07T18:45:05.381Z,98.09
2023-01-07T18:47:32.994Z,98.43
2023-01-07T18:50:00.208Z,98.72
2023-01-07T18:52:28.807Z,98.97
2023-01-07T18:54:55.926Z,99.43
2023-01-07T18:57:23.046Z,98.98
2023-01-07T18:59:50.203Z,98.61
2023-01-07T19:02:19.830Z,99.04
2023-01-07T19:04:50.536Z,98.95
2023-01-07T19:07:18.786Z,99.18
2023-01-07T19:09:46.024Z,99.35
2023-01-07T19:12:13.504Z,99.68
2023-01-07T19:14:41.252Z,99.58
2023-01-07T19:17:08.470Z,99.19
2023-01-07T19:19:47.297Z,99.22
2023-01-07T19:22:16.252Z,98.81
2023-01-07T19:24:44.491Z,99.36
2023-01-07T19:27:11.965Z,99.74
2023-01-07T19:29:39.086Z,99.18
2023-01-07T19:32:06.263Z,99.30
2023-01-07T19:34:33.481Z,100.00
2023-01-07T19:37:00.626Z,99.55
2023-01-07T19:39:27.728Z,99.71
2023-01-07T19:41:54.859Z,99.71
2023-01-07T19:44:22.014Z,100.00
2023-01-07T19:46:49.120Z,100.00
2023-01-07T19:49:16.205Z,100.00
2023-01-07T19:51:43.772Z,100.00
2023-01-07T19:54:17.622Z,100.00
2023-01-07T19:56:44.839Z,100.00
2023-01-07T19:59:12.044Z,100.00
2023-01-07T20:01:39.544Z,100.00
2023-01-07T20:04:08.433Z,100.00
2023-01-07T20:06:41.155Z,100.00
2023-01-07T20:09:12.365Z,100.00
2023-01-07T20:11:40.541Z,100.00
2023-01-07T20:14:07.840Z,100.00
2023-01-07T20:16:36.778Z,100.00
2023-01-07T20:19:05.279Z,100.00
2023-01-07T20:21:33.291Z,100.00
2023-01-07T20:24:00.416Z,100.00
2023-01-07T20:26:29.740Z,100.00
2023-01-07T20:28:58.206Z,100.00
2023-01-07T20:31:27.097Z,100.00
2023-01-07T20:33:57.590Z,100.00
2023-01-07T20:36:32.648Z,100.00
2023-01-07T20:39:05.424Z,100.00
2023-01-07T20:41:34.447Z,100.00
2023-01-07T20:44:03.799Z,100.00
2023-01-07T20:46:33.387Z,100.00
2023-01-07T20:49:01.068Z,100.00
2023-01-07T20:51:28.212Z,100.00
2023-01-07T20:53:55.522Z,100.00
2023-01-07T20:56:24.010Z,100.00
2023-01-07T20:58:51.216Z,100.00
2023-01-07T21:01:21.042Z,100.00
2023-01-07T21:03:48.923Z,100.00
2023-01-07T21:06:18.304Z,100.00
2023-01-07T21:08:46.902Z,100.00
2023-01-07T21:11:17.403Z,100.00
2023-01-07T21:13:44.962Z,100.00
2023-01-07T21:16:12.569Z,100.00
2023-01-07T21:18:40.941Z,100.00
2023-01-07T21:21:13.837Z,100.00
2023-01-07T21:23:41.618Z,100.00
2023-01-07T21:26:09.857Z,100.00
2023-01-07T21:28:36.973Z,100.00
2023-01-07T21:31:08.779Z,100.00
2023-01-07T21:33:36.805Z,100.00
2023-01-07T21:36:18.529Z,100.00
2023-01-07T21:38:46.763Z,100.00
2023-01-07T21:41:16.136Z,100.00
2023-01-07T21:43:44.396Z,100.00
2023-01-07T21:46:12.213Z,100.00
2023-01-07T21:48:41.187Z,100.00
2023-01-07T21:51:13.336Z,100.00
2023-01-07T21:53:40.458Z,100.00
2023-01-07T21:56:14.931Z,100.00
2023-01-07T21:58:43.660Z,100.00
2023-01-07T22:01:11.069Z,100.00
2023-01-07T22:03:38.426Z,100.00
2023-01-07T22:06:17.347Z,100.00
2023-01-07T22:08:44.419Z,100.00
2023-01-07T22:11:17.257Z,100.00
2023-01-07T22:13:44.368Z,100.00
2023-01-07T22:16:11.525Z,100.00
2023-01-07T22:18:38.724Z,100.00
2023-01-07T22:21:05.901Z,100.00
2023-01-07T22:23:33.051Z,100.00
2023-01-07T22:26:07.194Z,100.00
2023-01-07T22:28:36.936Z,100.00
2023-01-07T22:31:19.081Z,100.00
2023-01-07T22:33:46.276Z,100.00
2023-01-07T22:36:31.319Z,100.00
2023-01-07T22:39:07.205Z,100.00
2023-01-07T22:41:35.074Z,100.00
2023-01-07T22:44:06.796Z,100.00
2023-01-07T22:46:36.196Z,100.00
2023-01-07T22:49:03.344Z,100.00
2023-01-07T22:51:38.593Z,100.00
2023-01-07T22:54:06.241Z,100.00
2023-01-07T22:56:34.524Z,100.00
2023-01-07T22:59:01.625Z,100.00
2023-01-07T23:01:28.790Z,100.00
2023-01-07T23:03:55.913Z,100.00
2023-01-07T23:06:23.355Z,100.00
2023-01-07T23:08:50.451Z,100.00
2023-01-07T23:11:35.872Z,100.00
2023-01-07T23:14:03.389Z,100.00
2023-01-07T23:16:30.635Z,100.00
2023-01-07T23:18:57.789Z,100.00
2023-01-07T23:21:24.885Z,100.00
2023-01-07T23:23:51.971Z,100.00
2023-01-07T23:26:19.110Z,100.00
2023-01-07T23:28:46.206Z,100.00
2023-01-07T23:31:13.323Z,100.00
2023-01-07T23:33:40.420Z,100.00
2023-01-07T23:36:09.552Z,100.00
2023-01-07T23:38:37.080Z,100.00
2023-01-07T23:41:07.128Z,100.00
2023-01-07T23:43:35.047Z,100.00
2023-01-07T23:46:05.401Z,100.00
2023-01-07T23:48:34.221Z,100.00
2023-01-07T23:51:10.060Z,100.00
2023-01-07T23:53:37.713Z,100.00
2023-01-07T23:56:05.883Z,100.00
2023-01-07T23:58:33.549Z,100.00
